Time;durP1;ratioP1;P1;durP2;ratioP2;P2;SDS_P1;SDS_P2;PMS_P1;PMS_P2;Temp;Humidity;BMP_temperature;BMP_pressure;BME280_temperature;BME280_humidity;BME280_pressure;Samples;Min_cycle;Max_cycle;Signal;HPM_P1;HPM_P2
2022/08/16 00:01:45;;;;;;;15.27;10.60;;;22.20;99.90;;;;;;5030528;28;20499;-71
2022/08/16 00:04:11;;;;;;;11.52;9.60;;;22.30;99.90;;;;;;5031558;28;20049;-71
2022/08/16 00:06:37;;;;;;;12.02;9.77;;;22.10;99.90;;;;;;5031608;28;20096;-71
2022/08/16 00:09:03;;;;;;;16.73;9.93;;;22.10;99.90;;;;;;5031645;28;20049;-71
2022/08/16 00:11:29;;;;;;;13.20;9.82;;;21.80;99.90;;;;;;5014024;28;20041;-70
2022/08/16 00:13:56;;;;;;;13.85;9.38;;;22.20;99.90;;;;;;5031347;28;20518;-70
2022/08/16 00:16:27;;;;;;;13.23;9.45;;;22.30;99.90;;;;;;5030227;28;20037;-71
2022/08/16 00:18:52;;;;;;;11.85;9.80;;;22.20;99.90;;;;;;5031497;28;20677;-70
2022/08/16 00:21:18;;;;;;;17.00;11.38;;;21.90;99.90;;;;;;5030375;28;20319;-71
2022/08/16 00:23:44;;;;;;;15.27;9.55;;;23.20;99.90;;;;;;5031258;28;20506;-70
2022/08/16 00:26:10;;;;;;;12.82;9.40;;;22.10;99.90;;;;;;5030323;28;20088;-71
2022/08/16 00:28:35;;;;;;;10.23;8.95;;;22.00;99.90;;;;;;5030189;28;20077;-70
2022/08/16 00:31:01;;;;;;;11.10;9.60;;;22.20;99.90;;;;;;5031573;28;20092;-71
2022/08/16 00:33:27;;;;;;;13.40;10.35;;;22.10;99.90;;;;;;5030221;28;20045;-71
2022/08/16 00:35:53;;;;;;;18.00;9.38;;;22.40;99.90;;;;;;5031152;28;20076;-71
2022/08/16 00:38:18;;;;;;;12.90;9.35;;;22.70;99.90;;;;;;5031441;28;20076;-71
2022/08/16 00:40:49;;;;;;;13.75;9.65;;;22.20;99.90;;;;;;5030048;28;20446;-71
2022/08/16 00:43:27;;;;;;;11.75;10.20;;;22.00;99.90;;;;;;5031535;28;20041;-71
2022/08/16 00:46:09;;;;;;;13.20;11.75;;;22.10;99.90;;;;;;5031155;28;20053;-71
2022/08/16 00:48:35;;;;;;;12.57;10.35;;;22.70;99.90;;;;;;5031379;28;20037;-71
2022/08/16 00:51:02;;;;;;;15.27;11.57;;;22.70;99.90;;;;;;5034942;28;20068;-71
2022/08/16 00:53:29;;;;;;;14.65;10.25;;;22.50;99.90;;;;;;5033732;28;20491;-71
2022/08/16 00:55:57;;;;;;;11.88;10.68;;;22.10;99.90;;;;;;5033313;28;20091;-71
2022/08/16 00:58:26;;;;;;;12.27;11.00;;;22.20;99.90;;;;;;5035001;28;20407;-71
2022/08/16 01:00:52;;;;;;;12.95;10.77;;;22.20;99.90;;;;;;5034977;28;20064;-71
2022/08/16 01:03:20;;;;;;;16.63;12.07;;;22.70;99.90;;;;;;5034795;28;20048;-71
2022/08/16 01:05:46;;;;;;;15.70;11.70;;;22.00;99.90;;;;;;5033177;28;20049;-71
2022/08/16 01:08:14;;;;;;;16.60;11.40;;;22.40;99.90;;;;;;5033719;28;20041;-71
2022/08/16 01:10:40;;;;;;;17.05;11.32;;;22.10;99.90;;;;;;5016923;28;20045;-71
2022/08/16 01:13:15;;;;;;;13.45;11.77;;;22.10;99.90;;;;;;5034712;28;20067;-71
2022/08/16 01:15:47;;;;;;;18.17;13.45;;;22.10;99.90;;;;;;5034150;28;20120;-71
2022/08/16 01:18:16;;;;;;;18.33;12.23;;;21.90;99.90;;;;;;5034788;28;20395;-71
2022/08/16 01:20:50;;;;;;;13.95;11.65;;;22.00;99.90;;;;;;5034388;28;20514;-71
2022/08/16 01:23:40;;;;;;;17.48;12.95;;;21.80;99.90;;;;;;5016794;28;20041;-71
2022/08/16 01:26:06;;;;;;;20.15;13.30;;;22.80;99.90;;;;;;5032969;28;20052;-71
2022/08/16 01:28:32;;;;;;;15.05;13.45;;;21.80;99.90;;;;;;5033336;28;20045;-71
2022/08/16 01:30:58;;;;;;;18.33;13.40;;;21.90;99.90;;;;;;5033136;28;20041;-71
2022/08/16 01:33:24;;;;;;;14.25;11.82;;;22.00;99.90;;;;;;5034377;28;20045;-71
2022/08/16 01:36:06;;;;;;;17.10;13.15;;;22.10;99.90;;;;;;5032696;28;20037;-71
2022/08/16 01:38:38;;;;;;;21.85;14.00;;;21.90;99.90;;;;;;5034412;28;20038;-71
2022/08/16 01:41:26;;;;;;;17.80;12.80;;;21.70;99.90;;;;;;5032892;28;20092;-71
2022/08/16 01:43:52;;;;;;;17.90;13.23;;;21.80;99.90;;;;;;5032661;28;20095;-70
2022/08/16 01:46:28;;;;;;;19.60;15.32;;;21.80;99.90;;;;;;5035654;28;20033;-71
2022/08/16 01:49:02;;;;;;;16.90;13.30;;;21.50;99.90;;;;;;5027079;28;20052;-71
2022/08/16 01:51:29;;;;;;;21.48;14.88;;;21.70;99.90;;;;;;5043219;28;20052;-71
2022/08/16 01:53:55;;;;;;;17.23;14.40;;;21.60;99.90;;;;;;5046482;28;20065;-71
2022/08/16 01:56:22;;;;;;;19.60;14.43;;;21.60;99.90;;;;;;5028518;28;20041;-71
2022/08/16 01:58:48;;;;;;;23.75;15.60;;;21.50;99.90;;;;;;5034645;28;20100;-71
2022/08/16 02:01:13;;;;;;;19.52;14.10;;;22.10;99.90;;;;;;5033840;28;20037;-71
2022/08/16 02:03:40;;;;;;;18.40;15.48;;;21.40;99.90;;;;;;5035236;28;20037;-71
2022/08/16 02:06:06;;;;;;;19.13;16.05;;;21.60;99.90;;;;;;5034041;28;20061;-71
2022/08/16 02:08:33;;;;;;;18.27;15.02;;;21.50;99.90;;;;;;5032805;28;20090;-71
2022/08/16 02:11:01;;;;;;;19.90;14.93;;;21.70;99.90;;;;;;5032612;28;20502;-71
2022/08/16 02:13:26;;;;;;;20.85;15.43;;;21.40;99.90;;;;;;5033650;28;20042;-71
2022/08/16 02:15:52;;;;;;;19.77;15.15;;;21.50;99.90;;;;;;5032246;28;20048;-71
2022/08/16 02:18:18;;;;;;;19.80;15.00;;;;;;;;;;5031744;28;20077;-71
2022/08/16 02:20:47;;;;;;;22.48;16.48;;;;;;;;;;5032191;28;20522;-71
2022/08/16 02:23:16;;;;;;;21.23;16.15;;;;;;;;;;5032200;28;20083;-71
2022/08/16 02:25:42;;;;;;;20.48;15.55;;;;;;;;;;5032056;28;20099;-71
2022/08/16 02:28:08;;;;;;;19.05;15.38;;;;;;;;;;5031999;28;20049;-71
2022/08/16 02:30:34;;;;;;;16.65;13.65;;;21.40;99.90;;;;;;5032227;28;20048;-71
2022/08/16 02:33:06;;;;;;;15.30;13.10;;;;;;;;;;5033379;28;20041;-71
2022/08/16 02:35:33;;;;;;;21.17;16.02;;;;;;;;;;5031565;28;20051;-71
2022/08/16 02:37:59;;;;;;;19.20;15.82;;;21.10;99.90;;;;;;5032063;28;20077;-71
2022/08/16 02:40:26;;;;;;;18.98;16.30;;;21.20;99.90;;;;;;5031984;28;20446;-71
2022/08/16 02:42:53;;;;;;;18.42;15.52;;;21.10;99.90;;;;;;5031656;28;20522;-71
2022/08/16 02:45:22;;;;;;;31.27;15.73;;;21.00;99.90;;;;;;5032857;28;20124;-71
2022/08/16 02:47:48;;;;;;;18.73;16.17;;;21.40;99.90;;;;;;5031879;28;20037;-71
2022/08/16 02:50:14;;;;;;;18.85;14.95;;;21.10;99.90;;;;;;5033043;28;20561;-71
2022/08/16 02:52:39;;;;;;;17.55;14.50;;;21.00;99.90;;;;;;5031749;28;20156;-71
2022/08/16 02:55:06;;;;;;;19.63;14.85;;;21.00;99.90;;;;;;5031321;28;20045;-71
2022/08/16 02:57:32;;;;;;;15.98;14.10;;;20.70;99.90;;;;;;5032595;28;20041;-71
2022/08/16 02:59:58;;;;;;;18.42;15.98;;;21.40;99.90;;;;;;5032952;28;20037;-71
2022/08/16 03:02:24;;;;;;;19.65;15.68;;;20.70;99.90;;;;;;5032629;28;20037;-71
2022/08/16 03:04:50;;;;;;;21.42;15.45;;;20.70;99.90;;;;;;5031141;28;20522;-71
2022/08/16 03:07:18;;;;;;;22.98;15.40;;;20.60;99.90;;;;;;5032364;28;20127;-71
2022/08/16 03:09:44;;;;;;;18.83;14.82;;;20.80;99.90;;;;;;5032365;28;20411;-71
2022/08/16 03:12:09;;;;;;;16.30;14.65;;;20.60;99.90;;;;;;5031865;28;20037;-71
2022/08/16 03:14:35;;;;;;;22.70;16.45;;;20.80;99.90;;;;;;5032401;28;20394;-71
2022/08/16 03:17:00;;;;;;;23.38;17.45;;;21.10;99.90;;;;;;5031103;28;20543;-71
2022/08/16 03:19:32;;;;;;;22.52;16.88;;;20.50;99.90;;;;;;5031176;28;20037;-71
2022/08/16 03:21:58;;;;;;;19.73;16.70;;;20.60;99.90;;;;;;5032327;28;20033;-71
2022/08/16 03:24:23;;;;;;;20.80;17.30;;;20.30;99.90;;;;;;5030682;28;20491;-71
2022/08/16 03:26:50;;;;;;;22.42;18.08;;;20.50;99.90;;;;;;5032091;28;20045;-71
2022/08/16 03:29:15;;;;;;;22.00;16.92;;;20.40;99.90;;;;;;5030831;28;20037;-71
2022/08/16 03:31:41;;;;;;;21.05;17.23;;;20.50;99.90;;;;;;5031127;28;20041;-71
2022/08/16 03:34:07;;;;;;;22.88;17.00;;;20.60;99.90;;;;;;5030418;28;20519;-71
2022/08/16 03:36:32;;;;;;;21.58;18.30;;;20.70;99.90;;;;;;5031076;28;20043;-71
2022/08/16 03:38:58;;;;;;;23.60;16.60;;;20.30;99.90;;;;;;5031986;28;20061;-71
2022/08/16 03:41:25;;;;;;;19.95;17.35;;;20.40;99.90;;;;;;5030679;28;20041;-71
2022/08/16 03:43:53;;;;;;;21.83;16.65;;;20.30;99.90;;;;;;5030470;28;20563;-71
2022/08/16 03:46:20;;;;;;;20.48;17.10;;;20.30;99.90;;;;;;5032050;28;20041;-71
2022/08/16 03:48:47;;;;;;;19.88;17.10;;;20.40;99.90;;;;;;5032000;28;20050;-71
2022/08/16 03:51:13;;;;;;;24.13;18.58;;;;;;;;;;5031992;28;20427;-71
2022/08/16 03:53:41;;;;;;;22.05;18.88;;;20.10;99.90;;;;;;5031646;28;20126;-71
2022/08/16 03:56:07;;;;;;;25.50;18.23;;;21.10;99.90;;;;;;5031419;28;20065;-71
2022/08/16 03:58:34;;;;;;;20.00;17.48;;;19.90;99.90;;;;;;5032014;28;20045;-71
2022/08/16 04:00:59;;;;;;;21.55;17.25;;;20.20;99.90;;;;;;5030530;28;20159;-71
2022/08/16 04:03:25;;;;;;;20.55;18.27;;;19.80;99.90;;;;;;5031954;28;20128;-71
2022/08/16 04:05:50;;;;;;;21.60;17.90;;;20.00;99.90;;;;;;5031443;28;20051;-71
2022/08/16 04:08:19;;;;;;;20.20;17.60;;;20.20;99.90;;;;;;5031600;28;20047;-71
2022/08/16 04:10:45;;;;;;;21.98;17.88;;;20.00;99.90;;;;;;5030432;28;20041;-71
2022/08/16 04:13:10;;;;;;;20.48;18.23;;;20.10;99.90;;;;;;5030363;28;20396;-71
2022/08/16 04:15:37;;;;;;;38.03;19.20;;;19.80;99.90;;;;;;5030283;28;20037;-71
2022/08/16 04:18:03;;;;;;;21.23;18.10;;;19.90;99.90;;;;;;5031820;28;20384;-71
2022/08/16 04:20:30;;;;;;;19.15;16.90;;;20.10;99.90;;;;;;5030375;28;20046;-71
2022/08/16 04:22:56;;;;;;;23.92;18.60;;;19.90;99.90;;;;;;5030222;28;20053;-71
2022/08/16 04:25:22;;;;;;;23.52;18.92;;;20.30;99.90;;;;;;5032668;28;20418;-71
2022/08/16 04:27:48;;;;;;;19.48;17.15;;;19.80;99.90;;;;;;5035793;28;20116;-71
2022/08/16 04:30:15;;;;;;;23.45;18.38;;;19.90;99.90;;;;;;5034250;28;20172;-71
2022/08/16 04:32:42;;;;;;;23.90;18.80;;;19.80;99.90;;;;;;5034251;28;20095;-71
2022/08/16 04:35:10;;;;;;;21.67;18.10;;;20.30;99.90;;;;;;5035179;28;20089;-70
2022/08/16 04:37:36;;;;;;;22.55;18.45;;;20.20;99.90;;;;;;5035245;28;20495;-71
2022/08/16 04:40:03;;;;;;;24.25;18.98;;;19.90;99.90;;;;;;5036614;28;20049;-71
2022/08/16 04:42:28;;;;;;;20.60;17.52;;;19.90;99.90;;;;;;5036342;28;20057;-71
2022/08/16 04:44:54;;;;;;;23.92;18.50;;;19.90;99.90;;;;;;5035115;28;20060;-71
2022/08/16 04:47:20;;;;;;;23.58;18.35;;;19.60;99.90;;;;;;5034242;28;20041;-71
2022/08/16 04:49:46;;;;;;;24.90;17.00;;;19.80;99.90;;;;;;5035561;28;20037;-71
2022/08/16 04:52:12;;;;;;;19.58;17.48;;;19.90;99.90;;;;;;5035421;28;20491;-71
2022/08/16 04:54:39;;;;;;;22.50;18.65;;;19.80;99.90;;;;;;5035182;28;20395;-71
2022/08/16 04:57:05;;;;;;;21.05;18.00;;;19.90;99.90;;;;;;5035561;28;20489;-71
2022/08/16 04:59:31;;;;;;;21.50;17.15;;;20.10;99.90;;;;;;5036566;28;20115;-70
2022/08/16 05:01:56;;;;;;;23.02;16.55;;;19.80;99.90;;;;;;5050723;28;20116;-71
2022/08/16 05:04:22;;;;;;;20.85;16.95;;;20.40;99.90;;;;;;5032853;28;20091;-70
2022/08/16 05:06:49;;;;;;;22.23;18.13;;;20.60;99.90;;;;;;5043155;28;20038;-70
2022/08/16 05:09:15;;;;;;;21.80;17.48;;;20.00;99.90;;;;;;5034696;28;20127;-71
2022/08/16 05:11:40;;;;;;;23.45;18.45;;;19.90;99.90;;;;;;5034072;28;20045;-71
2022/08/16 05:14:06;;;;;;;18.83;16.83;;;19.60;99.90;;;;;;5052786;28;20040;-70
2022/08/16 05:16:32;;;;;;;22.27;17.15;;;19.90;99.90;;;;;;5053779;28;20063;-71
2022/08/16 05:19:01;;;;;;;20.25;16.27;;;19.90;99.90;;;;;;5053364;28;20029;-71
2022/08/16 05:21:27;;;;;;;21.23;17.98;;;20.00;99.90;;;;;;5053035;28;20033;-71
2022/08/16 05:23:53;;;;;;;20.10;15.75;;;20.20;99.90;;;;;;5054286;28;20048;-70
2022/08/16 05:26:19;;;;;;;30.73;17.65;;;20.20;99.90;;;;;;5052946;28;20044;-69
2022/08/16 05:28:44;;;;;;;19.92;16.77;;;20.10;99.90;;;;;;5054507;28;20438;-70
2022/08/16 05:31:10;;;;;;;18.08;14.75;;;20.40;99.90;;;;;;5053121;28;20115;-70
2022/08/16 05:33:37;;;;;;;20.23;16.75;;;20.60;99.90;;;;;;5033249;28;20040;-70
2022/08/16 05:36:03;;;;;;;21.23;16.88;;;20.60;99.90;;;;;;5048402;28;20170;-69
2022/08/16 05:38:29;;;;;;;20.20;16.77;;;20.70;99.90;;;;;;5049840;28;20037;-70
2022/08/16 05:41:00;;;;;;;25.80;17.58;;;21.10;99.90;;;;;;5050100;28;20178;-70
2022/08/16 05:43:27;;;;;;;24.15;16.52;;;20.70;99.90;;;;;;5045693;28;20040;-70
2022/08/16 05:45:53;;;;;;;19.98;16.90;;;20.80;99.90;;;;;;5048155;28;20068;-70
2022/08/16 05:48:19;;;;;;;24.30;16.92;;;20.80;99.90;;;;;;5044481;28;20044;-70
2022/08/16 05:50:45;;;;;;;24.88;15.40;;;20.90;99.90;;;;;;5048280;28;20055;-70
2022/08/16 05:53:10;;;;;;;17.95;15.73;;;20.90;99.90;;;;;;5044794;28;20045;-69
2022/08/16 05:55:36;;;;;;;18.75;15.73;;;21.80;99.90;;;;;;5050169;28;20139;-70
2022/08/16 05:58:01;;;;;;;19.00;15.18;;;21.10;99.90;;;;;;5049575;28;20047;-70
2022/08/16 06:00:28;;;;;;;23.40;16.13;;;21.30;99.90;;;;;;5046175;28;20025;-70
2022/08/16 06:02:53;;;;;;;21.35;16.92;;;21.10;99.90;;;;;;5047508;28;20456;-70
2022/08/16 06:05:19;;;;;;;21.35;17.65;;;21.70;99.90;;;;;;5045364;28;20045;-70
2022/08/16 06:07:44;;;;;;;18.90;15.90;;;21.80;99.90;;;;;;5047929;28;20037;-70
2022/08/16 06:10:11;;;;;;;25.05;18.50;;;21.20;99.90;;;;;;5049985;28;20087;-70
2022/08/16 06:12:37;;;;;;;18.83;16.75;;;21.30;99.90;;;;;;5046387;28;20123;-70
2022/08/16 06:15:10;;;;;;;22.63;16.92;;;21.50;99.90;;;;;;5047255;28;20040;-70
2022/08/16 06:17:36;;;;;;;19.30;15.90;;;21.50;99.90;;;;;;5044194;28;20082;-70
2022/08/16 06:20:04;;;;;;;22.65;17.20;;;21.40;99.90;;;;;;5025288;28;20076;-70
2022/08/16 06:22:30;;;;;;;23.35;18.73;;;21.40;99.90;;;;;;5024564;28;20435;-70
2022/08/16 06:24:55;;;;;;;21.75;16.65;;;21.70;99.90;;;;;;5045369;28;20119;-70
2022/08/16 06:27:21;;;;;;;20.38;17.73;;;21.70;99.90;;;;;;5049264;28;20041;-70
2022/08/16 06:29:47;;;;;;;23.60;15.68;;;21.70;99.90;;;;;;5046065;28;20039;-70
2022/08/16 06:32:13;;;;;;;21.05;16.42;;;21.90;99.90;;;;;;5047043;28;20051;-70
2022/08/16 06:34:38;;;;;;;21.88;17.05;;;22.70;99.90;;;;;;5043268;28;20052;-70
2022/08/16 06:37:04;;;;;;;22.85;17.33;;;21.70;99.90;;;;;;5046244;28;20413;-70
2022/08/16 06:39:30;;;;;;;23.40;18.52;;;22.00;99.90;;;;;;5042547;28;20043;-66
2022/08/16 06:41:56;;;;;;;22.17;17.88;;;22.00;99.90;;;;;;5046488;28;20044;-67
2022/08/16 06:44:22;;;;;;;26.70;18.55;;;22.10;99.90;;;;;;5046396;28;20490;-70
2022/08/16 06:46:47;;;;;;;22.05;19.00;;;22.00;99.90;;;;;;5042390;28;20040;-70
2022/08/16 06:49:13;;;;;;;25.70;19.00;;;21.90;99.90;;;;;;5045696;28;20123;-69
2022/08/16 06:51:41;;;;;;;25.13;18.95;;;22.00;99.90;;;;;;5042260;28;20044;-70
2022/08/16 06:54:07;;;;;;;20.48;17.67;;;22.60;99.90;;;;;;5045748;28;20045;-70
2022/08/16 06:56:34;;;;;;;22.30;19.95;;;22.50;99.90;;;;;;5046915;28;20046;-70
2022/08/16 06:59:00;;;;;;;23.02;19.20;;;22.20;99.90;;;;;;5045196;28;20068;-70
2022/08/16 07:01:27;;;;;;;27.52;20.42;;;22.10;99.90;;;;;;5041357;28;20519;-70
2022/08/16 07:03:53;;;;;;;24.95;19.38;;;22.50;99.90;;;;;;5027088;28;20053;-67
2022/08/16 07:06:19;;;;;;;23.70;20.92;;;22.60;99.90;;;;;;5040504;28;20399;-70
2022/08/16 07:08:46;;;;;;;23.65;20.27;;;22.40;99.90;;;;;;5041291;28;20086;-69
2022/08/16 07:11:13;;;;;;;23.38;19.63;;;22.60;99.90;;;;;;5045192;28;20083;-70
2022/08/16 07:13:39;;;;;;;25.48;21.35;;;22.70;99.90;;;;;;5042117;28;20036;-70
2022/08/16 07:16:13;;;;;;;30.08;22.02;;;22.60;99.90;;;;;;5045405;28;20503;-70
2022/08/16 07:18:42;;;;;;;25.05;21.52;;;22.80;99.90;;;;;;5046692;28;20048;-71
2022/08/16 07:21:10;;;;;;;26.02;22.10;;;22.70;99.90;;;;;;5029758;28;20037;-70
2022/08/16 07:23:36;;;;;;;31.73;22.08;;;22.90;99.90;;;;;;5036946;28;20056;-71
2022/08/16 07:26:04;;;;;;;25.02;21.35;;;23.10;99.90;;;;;;5042887;28;20041;-70
2022/08/16 07:28:29;;;;;;;27.35;22.30;;;23.30;99.90;;;;;;5044863;28;20117;-71
2022/08/16 07:30:56;;;;;;;28.45;22.38;;;23.30;99.90;;;;;;5050107;28;20079;-71
2022/08/16 07:33:22;;;;;;;27.90;24.27;;;23.60;99.90;;;;;;5051389;28;20052;-71
2022/08/16 07:35:47;;;;;;;28.63;23.95;;;23.50;99.90;;;;;;5050602;28;20048;-71
2022/08/16 07:38:13;;;;;;;25.45;22.67;;;23.70;99.90;;;;;;5042279;28;20514;-71
2022/08/16 07:40:39;;;;;;;27.60;23.60;;;24.00;99.90;;;;;;5044103;28;20041;-71
2022/08/16 07:43:04;;;;;;;25.77;22.55;;;23.80;99.90;;;;;;5050585;28;20116;-71
2022/08/16 07:45:32;;;;;;;27.17;21.42;;;24.00;99.90;;;;;;5046198;28;20490;-71
2022/08/16 07:47:58;;;;;;;30.33;21.83;;;24.30;99.90;;;;;;5042895;28;20045;-71
2022/08/16 07:50:23;;;;;;;32.28;23.45;;;24.00;99.90;;;;;;5042247;28;20561;-70
2022/08/16 07:52:49;;;;;;;26.30;22.63;;;24.10;99.90;;;;;;5041062;28;20553;-70
2022/08/16 07:55:15;;;;;;;27.92;21.88;;;24.00;99.90;;;;;;5040316;28;20072;-71
2022/08/16 07:57:42;;;;;;;25.23;21.38;;;24.20;99.90;;;;;;5038522;28;20033;-71
2022/08/16 08:00:09;;;;;;;28.60;23.42;;;24.20;99.90;;;;;;5044311;28;20037;-70
2022/08/16 08:02:35;;;;;;;25.23;22.20;;;24.20;99.90;;;;;;5049805;28;20119;-71
2022/08/16 08:05:01;;;;;;;26.80;21.77;;;24.30;99.90;;;;;;5046231;28;20050;-71
2022/08/16 08:07:28;;;;;;;30.00;23.65;;;24.30;99.90;;;;;;5031764;28;20392;-71
2022/08/16 08:09:54;;;;;;;28.63;21.23;;;25.00;99.90;;;;;;5030751;28;20056;-71
2022/08/16 08:12:20;;;;;;;25.95;21.85;;;24.40;99.90;;;;;;5049215;28;20037;-71
2022/08/16 08:14:46;;;;;;;30.52;24.73;;;24.50;99.90;;;;;;5049781;28;20048;-71
2022/08/16 08:17:12;;;;;;;23.90;21.00;;;24.20;99.90;;;;;;5050910;28;20044;-71
2022/08/16 08:19:38;;;;;;;28.58;22.42;;;25.20;99.90;;;;;;5036365;28;20033;-71
2022/08/16 08:22:04;;;;;;;27.23;22.30;;;25.50;99.90;;;;;;5022052;28;20033;-71
2022/08/16 08:24:33;;;;;;;22.15;19.02;;;24.50;99.90;;;;;;5049318;28;20506;-71
2022/08/16 08:27:00;;;;;;;28.95;21.48;;;24.80;99.90;;;;;;5049695;28;20175;-71
2022/08/16 08:29:26;;;;;;;27.90;19.63;;;24.90;99.90;;;;;;5049595;28;20605;-70
2022/08/16 08:31:52;;;;;;;19.65;15.70;;;25.00;99.90;;;;;;5039990;28;20119;-71
2022/08/16 08:34:18;;;;;;;20.92;12.52;;;24.90;99.90;;;;;;5039335;28;20113;-71
2022/08/16 08:36:43;;;;;;;14.57;12.32;;;24.80;99.90;;;;;;5042723;28;20112;-71
2022/08/16 08:39:09;;;;;;;18.63;14.95;;;26.00;99.90;;;;;;5024227;28;20425;-71
2022/08/16 08:41:35;;;;;;;17.77;13.27;;;25.50;99.90;;;;;;5033113;28;20049;-71
2022/08/16 08:44:00;;;;;;;20.35;14.80;;;24.90;99.90;;;;;;5040065;28;20049;-71
2022/08/16 08:46:27;;;;;;;19.92;14.32;;;24.70;99.90;;;;;;5029562;28;20042;-71
2022/08/16 08:48:55;;;;;;;19.42;14.80;;;25.80;99.90;;;;;;5040901;28;20091;-71
2022/08/16 08:51:22;;;;;;;23.65;19.08;;;25.20;99.90;;;;;;5033242;28;20479;-71
2022/08/16 08:53:49;;;;;;;20.85;17.00;;;24.80;99.90;;;;;;5050178;28;20041;-71
2022/08/16 08:56:15;;;;;;;19.52;17.27;;;25.10;99.90;;;;;;5050668;28;20033;-71
2022/08/16 08:58:41;;;;;;;24.27;15.98;;;25.10;99.90;;;;;;5050844;28;20403;-71
2022/08/16 09:01:07;;;;;;;24.15;17.52;;;25.40;99.90;;;;;;5036805;28;20040;-71
2022/08/16 09:03:33;;;;;;;24.10;16.10;;;25.20;99.90;;;;;;5029832;28;20048;-71
2022/08/16 09:06:00;;;;;;;24.15;16.42;;;26.20;99.90;;;;;;5041163;28;20041;-71
2022/08/16 09:08:27;;;;;;;23.90;17.73;;;25.40;99.90;;;;;;5046666;28;20065;-71
2022/08/16 09:10:57;;;;;;;18.63;16.58;;;25.20;99.90;;;;;;5044362;28;20073;-70
2022/08/16 09:13:24;;;;;;;21.50;16.88;;;25.60;99.90;;;;;;5061882;28;20045;-71
2022/08/16 09:15:50;;;;;;;19.33;13.57;;;25.70;99.90;;;;;;5058242;28;20510;-71
2022/08/16 09:18:16;;;;;;;22.58;15.77;;;25.70;99.90;;;;;;5055949;28;20041;-70
2022/08/16 09:20:43;;;;;;;23.20;15.60;;;25.90;99.90;;;;;;5059847;28;20041;-71
2022/08/16 09:23:10;;;;;;;16.90;14.68;;;25.70;99.90;;;;;;5043062;28;20041;-71
2022/08/16 09:25:36;;;;;;;16.10;13.57;;;25.80;99.90;;;;;;5054305;28;20695;-71
2022/08/16 09:28:02;;;;;;;18.40;15.35;;;26.30;99.90;;;;;;5052479;28;20037;-71
2022/08/16 09:30:28;;;;;;;21.88;16.05;;;25.70;99.90;;;;;;5046403;28;20619;-71
2022/08/16 09:32:53;;;;;;;20.38;14.85;;;26.00;99.90;;;;;;5050670;28;20129;-71
2022/08/16 09:35:21;;;;;;;21.30;15.90;;;26.00;99.90;;;;;;5037298;28;20124;-71
2022/08/16 09:37:46;;;;;;;20.33;13.85;;;25.90;99.90;;;;;;5040176;28;20116;-71
2022/08/16 09:40:13;;;;;;;18.48;15.07;;;25.90;99.90;;;;;;5043279;28;20550;-71
2022/08/16 09:42:39;;;;;;;15.60;12.10;;;26.10;99.90;;;;;;5040665;28;20128;-71
2022/08/16 09:45:07;;;;;;;18.38;12.13;;;28.20;99.90;;;;;;5034107;28;20116;-71
2022/08/16 09:47:39;;;;;;;17.63;11.93;;;26.30;99.90;;;;;;5050525;28;20490;-71
2022/08/16 09:50:07;;;;;;;19.92;13.43;;;26.40;99.90;;;;;;5053388;28;20107;-71
2022/08/16 09:52:34;;;;;;;14.65;12.57;;;26.20;99.90;;;;;;5052798;28;20036;-71
2022/08/16 09:55:02;;;;;;;15.73;13.07;;;26.30;99.90;;;;;;5051488;28;20051;-71
2022/08/16 09:57:28;;;;;;;13.80;10.70;;;26.60;99.90;;;;;;5053241;28;20086;-71
2022/08/16 09:59:53;;;;;;;16.33;13.15;;;27.50;99.90;;;;;;5052651;28;20025;-71
2022/08/16 10:02:19;;;;;;;17.92;12.18;;;26.70;99.90;;;;;;5034766;28;20072;-71
2022/08/16 10:04:44;;;;;;;17.10;10.32;;;27.40;99.90;;;;;;5051487;28;20040;-71
2022/08/16 10:07:10;;;;;;;18.52;12.63;;;27.10;99.90;;;;;;5032469;28;20049;-71
2022/08/16 10:09:35;;;;;;;21.60;14.27;;;27.00;99.90;;;;;;5032025;28;20037;-71
2022/08/16 10:14:45;;;;;;;11.38;9.88;;;26.90;99.90;;;;;;5042384;28;20110;-72
2022/08/16 10:17:11;;;;;;;15.50;11.88;;;27.00;99.90;;;;;;5052452;28;20108;-71
2022/08/16 10:19:36;;;;;;;13.32;10.25;;;27.00;99.70;;;;;;5041051;28;20041;-72
2022/08/16 10:22:02;;;;;;;15.35;10.73;;;26.90;99.90;;;;;;5051908;28;20041;-71
2022/08/16 10:24:28;;;;;;;18.75;11.63;;;27.30;99.90;;;;;;5051830;28;20049;-71
2022/08/16 10:26:56;;;;;;;11.10;9.38;;;27.30;99.60;;;;;;5051034;28;20120;-71
2022/08/16 10:29:22;;;;;;;12.00;10.02;;;27.30;99.50;;;;;;5051669;28;20774;-72
2022/08/16 10:31:48;;;;;;;10.50;9.32;;;27.30;99.00;;;;;;5050976;28;20437;-71
2022/08/16 10:34:14;;;;;;;11.75;8.68;;;27.60;99.30;;;;;;5050962;28;20033;-71
2022/08/16 10:36:39;;;;;;;12.15;8.60;;;28.10;99.20;;;;;;5052352;28;20041;-71
2022/08/16 10:39:06;;;;;;;13.63;8.73;;;27.60;98.70;;;;;;5051667;28;20040;-71
2022/08/16 10:41:32;;;;;;;12.55;9.90;;;27.90;98.70;;;;;;5052304;28;20074;-72
2022/08/16 10:43:58;;;;;;;13.00;8.88;;;27.60;98.20;;;;;;5048187;28;20053;-71
2022/08/16 10:46:24;;;;;;;16.42;12.18;;;28.00;98.50;;;;;;5040177;28;20035;-71
2022/08/16 10:48:51;;;;;;;11.02;9.90;;;27.70;98.40;;;;;;5031784;28;20411;-72
2022/08/16 10:51:17;;;;;;;15.60;12.05;;;27.60;98.50;;;;;;5032713;28;20515;-72
2022/08/16 10:53:43;;;;;;;14.20;11.23;;;28.80;98.80;;;;;;5039813;28;20140;-71
2022/08/16 10:56:11;;;;;;;14.73;11.43;;;27.70;98.50;;;;;;5032145;28;20470;-72
2022/08/16 10:58:39;;;;;;;16.92;12.25;;;27.70;98.50;;;;;;5033660;28;20038;-72
2022/08/16 11:01:07;;;;;;;14.85;11.85;;;28.00;98.30;;;;;;5046046;28;20045;-71
2022/08/16 11:03:34;;;;;;;16.60;12.43;;;27.60;98.50;;;;;;5047096;28;20467;-72
2022/08/16 11:06:00;;;;;;;16.80;10.80;;;27.70;98.40;;;;;;5037617;28;20087;-68
2022/08/16 11:08:26;;;;;;;13.35;8.95;;;27.70;98.40;;;;;;5040734;28;20453;-71
2022/08/16 11:10:52;;;;;;;16.27;12.80;;;28.00;98.30;;;;;;5035029;28;20048;-71
2022/08/16 11:13:21;;;;;;;14.27;12.77;;;28.00;98.20;;;;;;5039340;28;20320;-71
2022/08/16 11:15:47;;;;;;;17.58;13.25;;;27.90;98.40;;;;;;5038409;28;20509;-71
2022/08/16 11:18:13;;;;;;;16.77;14.50;;;27.60;98.60;;;;;;5048794;28;20071;-72
2022/08/16 11:20:40;;;;;;;20.52;12.57;;;27.80;98.60;;;;;;5041158;28;20784;-72
2022/08/16 11:23:05;;;;;;;20.50;15.80;;;28.10;98.90;;;;;;5047250;28;20553;-72
2022/08/16 11:25:32;;;;;;;17.02;14.68;;;27.80;98.80;;;;;;5050354;28;20123;-72
2022/08/16 11:27:59;;;;;;;16.25;13.52;;;28.00;99.20;;;;;;5052102;28;20052;-72
2022/08/16 11:30:26;;;;;;;23.95;17.25;;;28.70;99.50;;;;;;5024615;28;20522;-72
2022/08/16 11:32:52;;;;;;;21.17;16.45;;;27.90;98.90;;;;;;5050283;28;20116;-71
2022/08/16 11:35:21;;;;;;;17.45;15.48;;;28.00;99.10;;;;;;5044941;28;20137;-72
2022/08/16 11:37:55;;;;;;;23.30;16.75;;;28.00;99.00;;;;;;5050583;28;20083;-72
2022/08/16 11:40:22;;;;;;;22.23;16.45;;;28.10;99.10;;;;;;5041967;28;20056;-72
2022/08/16 11:42:48;;;;;;;23.40;16.77;;;27.90;98.80;;;;;;5038625;28;20380;-72
2022/08/16 11:45:14;;;;;;;24.27;18.75;;;28.10;98.90;;;;;;5029365;28;20041;-72
2022/08/16 11:47:40;;;;;;;21.08;17.88;;;28.40;99.40;;;;;;5033886;28;20041;-72
2022/08/16 11:50:07;;;;;;;22.95;18.20;;;28.40;99.50;;;;;;5051380;28;20123;-72
2022/08/16 11:52:34;;;;;;;22.83;16.92;;;28.10;99.30;;;;;;5051525;28;20040;-72
2022/08/16 11:55:01;;;;;;;21.65;17.58;;;28.10;99.30;;;;;;5049931;28;20075;-72
2022/08/16 11:57:26;;;;;;;19.52;16.35;;;28.10;99.00;;;;;;5051291;28;20421;-72
2022/08/16 11:59:53;;;;;;;27.85;19.25;;;28.90;99.70;;;;;;5051428;28;20045;-72
2022/08/16 12:02:19;;;;;;;23.25;17.98;;;27.30;99.60;;;;;;5050297;28;20048;-72
2022/08/16 12:04:44;;;;;;;28.77;21.48;;;28.10;99.90;;;;;;5049891;28;20041;-72
2022/08/16 12:07:10;;;;;;;25.55;18.35;;;27.40;99.90;;;;;;5049550;28;20509;-72
2022/08/16 12:09:37;;;;;;;22.70;18.60;;;27.50;99.90;;;;;;5049979;28;20041;-72
2022/08/16 12:12:03;;;;;;;24.33;18.90;;;27.40;99.80;;;;;;5048498;28;20037;-72
2022/08/16 12:14:28;;;;;;;27.48;20.33;;;27.40;99.70;;;;;;5049750;28;20588;-72
2022/08/16 12:16:56;;;;;;;19.75;16.98;;;27.70;99.90;;;;;;5051071;28;20463;-72
2022/08/16 12:19:22;;;;;;;20.75;17.17;;;28.20;99.90;;;;;;5050341;28;20037;-72
2022/08/16 12:21:48;;;;;;;20.95;18.17;;;27.80;99.40;;;;;;5049744;28;20494;-71
2022/08/16 12:24:13;;;;;;;22.15;18.05;;;27.00;99.50;;;;;;5033296;28;20124;-72
2022/08/16 12:26:39;;;;;;;25.13;17.60;;;28.70;99.70;;;;;;5049986;28;20037;-72
2022/08/16 12:29:05;;;;;;;22.38;17.20;;;27.80;99.60;;;;;;5051371;28;20045;-72
2022/08/16 12:31:31;;;;;;;18.95;15.75;;;28.00;99.40;;;;;;5049967;28;20037;-72